الصفحة الرئيسية
METAR-TAF:

METAR-TAF

مطار :

مطار مهرآباد الدولي

طهران, إيران

دائرة عرض: 35-41N, خط طول: 051-21E, ارتفاع: 1204 متر

مراقبة الطقس الحالي

تاريخ ووقت الإصدار 19 دقيقة قبل الساعة 03:30UTC
رياح هادئة
درجة الحرارة 3°درجة مئوية
الرطوبة 52%
ضغط 1019 hPa
الرؤية 10 كم أو أكثر
غيوم قليلة على ارتفاع 4000 قدم

METAR: OIII 220330Z 00000KT 9999 FEW040 03/M06 Q1019 A3010

زمن: 07:19 (03:49 UTC)

توقعات

تاريخ ووقت الإصدار 4ساعات و 49 دقيقة قبل الساعة 23:00UTC
التوقعات صالحة من22 الساعة 00 UTC إلى 23 الساعة 06 UTC
ريح 6 عقدة من الشمال
الرؤية: 8000 متر
غيوم قليلة على ارتفاع 4000 قدم
غيوم مفككة على ارتفاع 10000 قدم
مؤقت
من 22 الساعة 08 UTC إلى 22 الساعة 15 UTC
ريح 12 عقدة من الجنوب/الجنوب الغربي
غيوم قليلة على ارتفاع 3500 قدم, مزن ركامية عمودية.
غيوم متفرقة على ارتفاع 4000 قدم
غيوم مفككة على ارتفاع 10000 قدم

TAF: OIII 212300Z 2200/2306 36006KT 8000 FEW040 BKN100 TEMPO 2208/2215 20012KT FEW035TCU SCT040 BKN100

أرصاد الطقس والتوقعات من أكثر من 4000 مطار (تقارير الطقس للمطار METAR والتنبؤ بالطقس بالمطارTAF).

المحطات المتاحة هي النقط الصفراء والحمراء على الخريطة.

حرك المؤشر فوق النقطة لمعرفة اسم المحطة.

ثم انقر لمعرفة أرصاد وتوقعات الطقس.

لتغيير الخارطة: اضغط على الأزرار الخضراء مع رمز الصليب الأسود للتكبير. على الزر الأخضر مع شرطة للتصغير، أو على الأسهم الخضراء للخرائط المجاورة.


METAR-TAF: